createdAt,value
2022-11-23T00:00:20.383Z,0.70
2022-11-23T00:02:52.509Z,0.70
2022-11-23T00:05:20.292Z,0.70
2022-11-23T00:07:50.488Z,0.70
2022-11-23T00:10:20.755Z,0.40
2022-11-23T00:12:50.305Z,0.40
2022-11-23T00:15:20.164Z,0.40
2022-11-23T00:17:50.099Z,0.40
2022-11-23T00:20:20.121Z,0.10
2022-11-23T00:22:50.515Z,0.10
2022-11-23T00:25:20.180Z,0.10
2022-11-23T00:27:50.129Z,0.10
2022-11-23T00:30:20.309Z,0.80
2022-11-23T00:37:50.497Z,0.80
2022-11-23T00:42:50.144Z,0.30
2022-11-23T00:45:20.183Z,0.30
2022-11-23T00:47:50.181Z,0.30
2022-11-23T00:50:20.365Z,0.30
2022-11-23T00:52:50.138Z,0.30
2022-11-23T00:55:20.179Z,0.30
2022-11-23T00:57:50.177Z,0.30
2022-11-23T01:00:20.209Z,0.20
2022-11-23T01:02:50.355Z,0.20
2022-11-23T01:05:20.180Z,0.20
2022-11-23T01:07:50.202Z,0.20
2022-11-23T01:10:20.163Z,0.80
2022-11-23T01:12:50.163Z,0.80
2022-11-23T01:15:20.497Z,0.80
2022-11-23T01:17:50.282Z,0.80
2022-11-23T01:20:20.137Z,0.20
2022-11-23T01:22:51.311Z,0.20
2022-11-23T01:27:50.412Z,0.20
2022-11-23T01:30:20.170Z,0.40
2022-11-23T01:32:50.177Z,0.40
2022-11-23T01:37:50.339Z,0.40
2022-11-23T01:40:20.717Z,0.20
2022-11-23T01:42:56.133Z,0.20
2022-11-23T01:45:33.191Z,0.20
2022-11-23T01:47:50.178Z,0.20
2022-11-23T01:50:20.271Z,0.40
2022-11-23T01:52:50.574Z,0.40
2022-11-23T01:55:20.543Z,0.40
2022-11-23T01:57:50.484Z,0.40
2022-11-23T02:00:20.201Z,1.50
2022-11-23T02:02:55.517Z,1.50
2022-11-23T02:05:24.276Z,1.50
2022-11-23T02:07:51.054Z,1.50
2022-11-23T02:10:22.187Z,2.50
2022-11-23T02:12:50.259Z,2.50
2022-11-23T02:15:20.398Z,2.50
2022-11-23T02:17:50.860Z,2.50
2022-11-23T02:20:20.304Z,2.60
2022-11-23T02:25:33.036Z,2.60
2022-11-23T02:27:50.884Z,2.60
2022-11-23T02:30:20.370Z,7.20
2022-11-23T02:32:50.194Z,7.20
2022-11-23T02:35:20.184Z,7.20
2022-11-23T02:37:51.659Z,7.20
2022-11-23T02:40:26.452Z,0.10
2022-11-23T02:42:50.617Z,0.10
2022-11-23T02:45:27.473Z,0.10
2022-11-23T02:47:50.145Z,0.10
2022-11-23T02:50:20.505Z,2.10
2022-11-23T02:52:50.223Z,2.10
2022-11-23T02:55:20.505Z,2.10
2022-11-23T02:57:50.162Z,2.10
2022-11-23T03:00:20.450Z,0.70
2022-11-23T03:02:50.253Z,0.70
2022-11-23T03:05:20.391Z,0.70
2022-11-23T03:07:51.275Z,0.70
2022-11-23T03:10:21.043Z,2.30
2022-11-23T03:12:54.426Z,2.30
2022-11-23T03:15:20.564Z,2.30
2022-11-23T03:17:50.973Z,2.30
2022-11-23T03:20:20.497Z,0.50
2022-11-23T03:22:50.408Z,0.50
2022-11-23T03:25:20.255Z,0.50
2022-11-23T03:27:50.254Z,0.50
2022-11-23T03:30:20.252Z,0.40
2022-11-23T03:35:20.841Z,0.40
2022-11-23T03:40:20.199Z,0.50
2022-11-23T03:42:50.261Z,0.50
2022-11-23T03:45:20.456Z,0.50
2022-11-23T03:47:50.395Z,0.50
2022-11-23T03:52:50.348Z,1.20
2022-11-23T03:57:50.247Z,1.20
2022-11-23T04:00:20.910Z,1.60
2022-11-23T04:02:50.244Z,1.60
2022-11-23T04:05:21.046Z,1.60
2022-11-23T04:07:50.321Z,1.60
2022-11-23T04:10:20.260Z,1.20
2022-11-23T04:12:51.365Z,1.20
2022-11-23T04:15:20.284Z,1.20
2022-11-23T04:17:50.192Z,1.20
2022-11-23T04:20:20.582Z,0.60
2022-11-23T04:25:21.050Z,0.60
2022-11-23T04:27:50.253Z,0.60
2022-11-23T04:30:20.254Z,0.80
2022-11-23T04:32:50.353Z,0.80
2022-11-23T04:35:21.467Z,0.80
2022-11-23T04:37:50.539Z,0.80
2022-11-23T04:40:21.055Z,1.60
2022-11-23T04:42:50.239Z,1.60
2022-11-23T04:45:20.230Z,1.60
2022-11-23T04:50:20.289Z,0.60
2022-11-23T04:52:50.183Z,0.60
2022-11-23T04:55:20.369Z,0.60
2022-11-23T04:57:50.383Z,0.30
2022-11-23T05:00:20.332Z,0.30
2022-11-23T05:02:50.707Z,0.30
2022-11-23T05:05:20.388Z,0.30
2022-11-23T05:07:50.313Z,3.70
2022-11-23T05:10:20.566Z,3.70
2022-11-23T05:12:50.230Z,3.70
2022-11-23T05:15:20.470Z,3.70
2022-11-23T05:17:53.086Z,0.10
2022-11-23T05:20:20.681Z,0.10
2022-11-23T05:22:50.256Z,0.10
2022-11-23T05:25:20.192Z,0.10
2022-11-23T05:27:50.790Z,0.50
2022-11-23T05:30:20.836Z,0.50
2022-11-23T05:32:50.416Z,0.50
2022-11-23T05:35:20.238Z,0.50
2022-11-23T05:37:50.928Z,0.80
2022-11-23T05:42:53.615Z,0.80
2022-11-23T05:45:20.594Z,0.80
2022-11-23T05:47:50.734Z,3.90
2022-11-23T05:50:23.828Z,3.90
2022-11-23T05:52:50.277Z,3.90
2022-11-23T05:55:20.307Z,3.90
2022-11-23T05:57:50.534Z,1.10
2022-11-23T06:00:20.633Z,1.10
2022-11-23T06:02:50.695Z,1.10
2022-11-23T06:05:20.575Z,1.10
2022-11-23T06:07:52.535Z,0.70
2022-11-23T06:10:20.701Z,0.70
2022-11-23T06:12:52.294Z,0.70
2022-11-23T06:15:20.503Z,0.70
2022-11-23T06:17:50.290Z,1.60
2022-11-23T06:20:20.285Z,1.60
2022-11-23T06:22:51.561Z,1.60
2022-11-23T06:25:20.954Z,1.60
2022-11-23T06:27:52.804Z,1.60
2022-11-23T06:30:20.317Z,1.60
2022-11-23T06:32:50.270Z,1.60
2022-11-23T06:37:52.827Z,0.40
2022-11-23T06:40:21.310Z,0.40
2022-11-23T06:42:50.254Z,0.40
2022-11-23T06:45:20.437Z,0.40
2022-11-23T06:47:50.290Z,0.70
2022-11-23T06:50:20.484Z,0.70
2022-11-23T06:57:50.683Z,0.70
2022-11-23T07:00:20.390Z,0.70
2022-11-23T07:02:51.645Z,0.70
2022-11-23T07:05:21.266Z,0.70
2022-11-23T07:07:50.419Z,1.40
2022-11-23T07:10:20.527Z,1.40
2022-11-23T07:12:50.289Z,1.40
2022-11-23T07:15:20.453Z,1.40
2022-11-23T07:17:50.394Z,1.20
2022-11-23T07:20:20.282Z,1.20
2022-11-23T07:22:59.853Z,1.20
2022-11-23T07:25:20.362Z,1.20
2022-11-23T07:27:54.719Z,0.60
2022-11-23T07:30:21.420Z,0.60
2022-11-23T07:35:20.514Z,0.60
2022-11-23T07:37:50.477Z,1.30
2022-11-23T07:40:20.450Z,1.30
2022-11-23T07:42:50.279Z,1.30
2022-11-23T07:45:22.339Z,1.30
2022-11-23T07:47:57.259Z,0.80
2022-11-23T07:50:20.273Z,0.80
2022-11-23T07:52:51.267Z,0.80
2022-11-23T07:55:20.876Z,0.80
2022-11-23T07:57:52.837Z,0.50
2022-11-23T08:00:20.847Z,0.50
2022-11-23T08:03:19.203Z,0.50
2022-11-23T08:05:20.702Z,0.50
2022-11-23T08:07:50.362Z,0.30
2022-11-23T08:10:20.417Z,0.30
2022-11-23T08:12:50.507Z,0.30
2022-11-23T08:15:20.476Z,0.30
2022-11-23T08:17:54.870Z,0.20
2022-11-23T08:20:20.268Z,0.20
2022-11-23T08:22:50.446Z,0.20
2022-11-23T08:25:20.748Z,0.20
2022-11-23T08:27:53.631Z,0.40
2022-11-23T08:30:20.467Z,0.40
2022-11-23T08:32:50.374Z,0.40
2022-11-23T08:35:21.315Z,0.40
2022-11-23T08:37:50.375Z,1.40
2022-11-23T08:42:50.477Z,1.40
2022-11-23T08:45:20.478Z,1.40
2022-11-23T08:47:51.172Z,0.50
2022-11-23T08:52:55.069Z,0.50
2022-11-23T08:57:53.651Z,0.60
2022-11-23T09:00:24.050Z,0.60
2022-11-23T09:02:50.297Z,0.60
2022-11-23T09:05:23.809Z,0.60
2022-11-23T09:07:50.508Z,0.80
2022-11-23T09:12:51.177Z,0.80
2022-11-23T09:15:20.602Z,0.80
2022-11-23T09:17:50.973Z,0.80
2022-11-23T09:22:51.682Z,0.80
2022-11-23T09:25:21.740Z,0.80
2022-11-23T09:27:56.131Z,0.30
2022-11-23T09:30:20.384Z,0.30
2022-11-23T09:32:50.307Z,0.30
2022-11-23T09:35:20.466Z,0.30
2022-11-23T09:37:54.337Z,0.70
2022-11-23T09:40:20.462Z,0.70
2022-11-23T09:43:00.051Z,0.70
2022-11-23T09:45:29.641Z,0.70
2022-11-23T09:48:06.284Z,0.40
2022-11-23T09:50:26.672Z,0.40
2022-11-23T09:52:50.918Z,0.40
2022-11-23T09:55:28.371Z,0.40
2022-11-23T09:57:55.846Z,14.60
2022-11-23T10:00:22.536Z,14.60
2022-11-23T10:02:50.770Z,14.60
2022-11-23T10:08:04.163Z,0.20
2022-11-23T10:10:35.465Z,0.20
2022-11-23T10:12:59.743Z,0.20
2022-11-23T10:15:26.338Z,0.20
2022-11-23T10:18:02.091Z,0.10
2022-11-23T10:20:37.074Z,0.10
2022-11-23T10:22:57.112Z,0.10
2022-11-23T10:25:22.672Z,0.10
2022-11-23T10:27:55.512Z,0.60
2022-11-23T10:30:20.508Z,0.60
2022-11-23T10:32:55.228Z,0.60
2022-11-23T10:35:27.440Z,0.60
2022-11-23T10:37:53.574Z,0.20
2022-11-23T10:40:23.322Z,0.20
2022-11-23T10:42:55.533Z,0.20
2022-11-23T10:45:22.869Z,0.20
2022-11-23T10:47:52.144Z,0.30
2022-11-23T10:50:25.915Z,0.30
2022-11-23T10:52:52.238Z,0.30
2022-11-23T10:55:25.378Z,0.30
2022-11-23T10:57:50.486Z,0.20
2022-11-23T11:00:27.219Z,0.20
2022-11-23T11:02:53.491Z,0.20
2022-11-23T11:06:01.112Z,0.20
2022-11-23T11:07:50.794Z,0.60
2022-11-23T11:12:51.081Z,0.60
2022-11-23T11:17:55.564Z,0.10
2022-11-23T11:20:30.461Z,0.10
2022-11-23T11:22:50.398Z,0.10
2022-11-23T11:25:28.988Z,0.10
2022-11-23T11:27:51.582Z,0.10
2022-11-23T11:30:22.453Z,0.10
2022-11-23T11:33:00.038Z,0.10
2022-11-23T11:35:25.353Z,0.10
2022-11-23T11:40:27.202Z,0.10
2022-11-23T11:42:56.034Z,0.10
2022-11-23T11:45:23.982Z,0.10
2022-11-23T11:47:56.579Z,0.40
2022-11-23T11:50:27.196Z,0.40
2022-11-23T11:52:56.334Z,0.40
2022-11-23T11:55:24.665Z,0.40
2022-11-23T11:57:55.519Z,0.30
2022-11-23T12:00:20.764Z,0.30
2022-11-23T12:03:00.310Z,0.30
2022-11-23T12:05:24.492Z,0.30
2022-11-23T12:28:24.377Z,0.30
2022-11-23T12:30:43.359Z,0.30
2022-11-23T12:33:24.881Z,0.30
2022-11-23T12:35:53.974Z,0.30
2022-11-23T12:38:14.973Z,0.40
2022-11-23T12:40:48.273Z,0.40
2022-11-23T12:43:12.950Z,0.40
2022-11-23T12:45:49.452Z,0.40
2022-11-23T12:48:21.088Z,0.30
2022-11-23T12:50:42.891Z,0.30
2022-11-23T12:53:22.723Z,0.30
2022-11-23T13:54:59.097Z,0.10
2022-11-23T13:55:38.024Z,0.10
2022-11-23T13:58:26.477Z,0.10
2022-11-23T14:00:47.560Z,0.10
2022-11-23T14:03:26.480Z,0.10
2022-11-23T14:05:56.186Z,0.10
2022-11-23T14:08:11.884Z,0.10
2022-11-23T14:10:37.045Z,0.10
2022-11-23T14:13:15.820Z,0.10
2022-11-23T14:15:40.109Z,0.10
2022-11-23T14:18:26.846Z,1.30
2022-11-23T14:20:56.474Z,1.30
2022-11-23T14:23:24.357Z,1.30
2022-11-23T14:25:49.240Z,1.30
2022-11-23T14:28:19.450Z,0.30
2022-11-23T14:30:47.085Z,0.30
2022-11-23T14:33:19.389Z,0.30
2022-11-23T14:35:47.388Z,0.30
2022-11-23T14:38:31.851Z,0.10
2022-11-23T14:40:51.900Z,0.10
2022-11-23T14:43:16.415Z,0.10
2022-11-23T14:45:37.210Z,0.10
2022-11-23T14:48:20.075Z,2.00
2022-11-23T14:50:36.776Z,2.00
2022-11-23T14:53:10.431Z,2.00
2022-11-23T14:55:36.714Z,2.00
2022-11-23T15:00:40.360Z,0.10
2022-11-23T15:03:42.519Z,0.10
2022-11-23T15:05:38.952Z,0.10
2022-11-23T15:08:14.420Z,0.20
2022-11-23T15:10:42.673Z,0.20
2022-11-23T15:13:19.455Z,0.20
2022-11-23T15:15:38.523Z,0.20
2022-11-23T15:18:06.921Z,0.10
2022-11-23T15:20:41.529Z,0.10
2022-11-23T15:23:19.503Z,0.10
2022-11-23T15:25:36.719Z,0.10
2022-11-23T15:28:16.113Z,0.10
2022-11-23T15:30:36.984Z,0.10
2022-11-23T15:33:10.505Z,0.10
2022-11-23T15:35:38.604Z,0.10
2022-11-23T15:38:12.494Z,0.10
2022-11-23T15:40:38.820Z,0.10
2022-11-23T15:43:11.648Z,0.10
2022-11-23T15:45:49.647Z,0.10
2022-11-23T15:48:12.567Z,0.60
2022-11-23T15:50:46.869Z,0.60
2022-11-23T15:53:07.692Z,0.60
2022-11-23T15:55:36.971Z,0.60
2022-11-23T15:58:09.187Z,0.10
2022-11-23T16:00:36.821Z,0.10
2022-11-23T16:03:20.651Z,0.10
2022-11-23T16:05:36.791Z,0.10
2022-11-23T16:08:22.955Z,0.10
2022-11-23T16:10:52.525Z,0.10
2022-11-23T16:13:26.620Z,0.10
2022-11-23T16:15:40.484Z,0.10
2022-11-23T16:18:18.477Z,0.10
2022-11-23T16:20:43.611Z,0.10
2022-11-23T16:23:17.289Z,0.10
2022-11-23T16:25:36.857Z,0.10
2022-11-23T16:28:18.404Z,0.30
2022-11-23T16:30:38.420Z,0.30
2022-11-23T16:33:13.910Z,0.30
2022-11-23T16:35:36.723Z,0.30
2022-11-23T16:40:36.729Z,0.20
2022-11-23T16:43:09.161Z,0.20
2022-11-23T16:45:39.244Z,0.20
2022-11-23T16:48:26.542Z,0.10
2022-11-23T16:50:36.730Z,0.10
2022-11-23T16:53:15.118Z,0.10
2022-11-23T16:55:42.108Z,0.10
2022-11-23T17:00:37.018Z,0.20
2022-11-23T17:03:10.171Z,0.20
2022-11-23T17:05:36.911Z,0.20
2022-11-23T17:08:07.214Z,0.10
2022-11-23T17:10:37.478Z,0.10
2022-11-23T17:13:12.226Z,0.10
2022-11-23T17:15:37.129Z,0.10
2022-11-23T17:18:12.416Z,0.60
2022-11-23T17:20:36.982Z,0.60
2022-11-23T17:23:07.146Z,0.60
2022-11-23T17:25:37.532Z,0.60
2022-11-23T17:28:14.496Z,0.10
2022-11-23T17:30:36.809Z,0.10
2022-11-23T17:33:09.691Z,0.10
2022-11-23T17:35:38.431Z,0.10
2022-11-23T17:38:13.199Z,0.90
2022-11-23T17:40:36.792Z,0.90
2022-11-23T17:43:07.963Z,0.90
2022-11-23T17:45:37.527Z,0.90
2022-11-23T17:48:10.223Z,0.10
2022-11-23T17:50:36.989Z,0.10
2022-11-23T17:53:08.390Z,0.10
2022-11-23T17:55:37.490Z,0.10
2022-11-23T17:58:07.084Z,0.40
2022-11-23T18:00:37.340Z,0.40
2022-11-23T18:05:36.995Z,0.40
2022-11-23T18:08:07.392Z,0.20
2022-11-23T18:10:36.933Z,0.20
2022-11-23T18:13:06.920Z,0.20
2022-11-23T18:15:36.832Z,0.20
2022-11-23T18:18:06.877Z,0.60
2022-11-23T18:20:36.955Z,0.60
2022-11-23T18:23:06.899Z,0.60
2022-11-23T18:25:36.794Z,0.60
2022-11-23T18:28:06.892Z,0.30
2022-11-23T18:33:07.120Z,0.30
2022-11-23T18:35:36.960Z,0.30
2022-11-23T18:38:06.994Z,0.10
2022-11-23T18:40:36.785Z,0.10
2022-11-23T18:43:06.846Z,0.10
2022-11-23T18:45:37.144Z,0.10
2022-11-23T18:48:07.960Z,1.00
2022-11-23T18:50:36.773Z,1.00
2022-11-23T18:53:07.088Z,1.00
2022-11-23T18:55:36.853Z,1.00
2022-11-23T19:00:36.988Z,1.10
2022-11-23T19:03:07.074Z,1.10
2022-11-23T19:05:36.776Z,1.10
2022-11-23T19:08:07.767Z,0.50
2022-11-23T19:10:37.614Z,0.50
2022-11-23T19:13:07.419Z,0.50
2022-11-23T19:15:37.224Z,0.50
2022-11-23T19:18:06.833Z,0.30
2022-11-23T19:20:36.793Z,0.30
2022-11-23T19:23:07.164Z,0.30
2022-11-23T19:25:37.012Z,0.30
2022-11-23T19:28:06.812Z,0.20
2022-11-23T19:30:38.322Z,0.20
2022-11-23T19:33:06.783Z,0.20
2022-11-23T19:35:36.989Z,0.20
2022-11-23T19:38:10.255Z,5.90
2022-11-23T19:40:36.793Z,5.90
2022-11-23T19:43:06.811Z,5.90
2022-11-23T19:45:36.956Z,5.90
2022-11-23T19:48:07.217Z,0.10
2022-11-23T19:50:37.297Z,0.10
2022-11-23T19:53:13.023Z,0.10
2022-11-23T19:55:36.852Z,0.10
2022-11-23T19:58:07.435Z,1.50
2022-11-23T20:00:38.780Z,1.50
2022-11-23T20:03:06.938Z,1.50
2022-11-23T20:05:37.204Z,1.50
2022-11-23T20:08:07.901Z,1.40
2022-11-23T20:10:36.973Z,1.40
2022-11-23T20:13:06.815Z,1.40
2022-11-23T20:18:07.247Z,0.40
2022-11-23T20:23:07.151Z,0.40
2022-11-23T20:25:37.514Z,0.40
2022-11-23T20:28:11.986Z,1.50
2022-11-23T20:30:36.874Z,1.50
2022-11-23T20:33:07.108Z,1.50
2022-11-23T20:35:37.716Z,1.50
2022-11-23T20:38:06.799Z,0.20
2022-11-23T20:43:07.001Z,0.20
2022-11-23T20:45:36.818Z,0.20
2022-11-23T20:48:07.038Z,0.30
2022-11-23T20:50:36.969Z,0.30
2022-11-23T20:53:06.880Z,0.30
2022-11-23T20:55:37.079Z,0.30
2022-11-23T20:58:07.309Z,0.80
2022-11-23T21:00:36.877Z,0.80
2022-11-23T21:03:08.577Z,0.80
2022-11-23T21:05:36.813Z,0.80
2022-11-23T21:08:10.365Z,0.80
2022-11-23T21:10:46.624Z,0.80
2022-11-23T21:13:22.851Z,0.80
2022-11-23T21:15:36.813Z,0.80
2022-11-23T21:18:06.964Z,0.90
2022-11-23T21:20:37.149Z,0.90
2022-11-23T21:23:06.827Z,0.90
2022-11-23T21:25:37.371Z,0.90
2022-11-23T21:28:06.809Z,0.50
2022-11-23T21:30:36.801Z,0.50
2022-11-23T21:33:07.313Z,0.50
2022-11-23T21:35:36.820Z,0.50
2022-11-23T21:38:06.857Z,0.40
2022-11-23T21:40:36.862Z,0.40
2022-11-23T21:43:06.932Z,0.40
2022-11-23T21:45:36.884Z,0.40
2022-11-23T21:48:07.785Z,1.20
2022-11-23T21:50:36.930Z,1.20
2022-11-23T21:53:06.977Z,1.20
2022-11-23T21:55:36.817Z,1.20
2022-11-23T21:58:07.223Z,0.60
2022-11-23T22:00:36.867Z,0.60
2022-11-23T22:03:06.859Z,0.60
2022-11-23T22:05:37.013Z,0.60
2022-11-23T22:08:28.133Z,0.20
2022-11-23T22:10:37.061Z,0.20
2022-11-23T22:13:06.836Z,0.20
2022-11-23T22:15:36.896Z,0.20
2022-11-23T22:18:06.821Z,1.10
2022-11-23T22:20:36.945Z,1.10
2022-11-23T22:23:07.237Z,1.10
2022-11-23T22:25:36.943Z,1.10
2022-11-23T22:28:06.954Z,0.20
2022-11-23T22:30:37.056Z,0.20
2022-11-23T22:33:06.844Z,0.20
2022-11-23T22:35:37.208Z,0.20
2022-11-23T22:38:06.818Z,0.20
2022-11-23T22:40:37.733Z,0.20
2022-11-23T22:48:06.932Z,0.10
2022-11-23T22:50:37.026Z,0.10
2022-11-23T22:55:37.129Z,0.10
2022-11-23T22:58:07.619Z,0.20
2022-11-23T23:03:07.534Z,0.20
2022-11-23T23:05:36.932Z,0.20
2022-11-23T23:08:07.273Z,0.20
2022-11-23T23:10:38.892Z,0.20
2022-11-23T23:13:06.845Z,0.20
2022-11-23T23:15:37.456Z,0.20
2022-11-23T23:18:06.919Z,0.90
2022-11-23T23:20:37.447Z,0.90
2022-11-23T23:25:36.890Z,0.90
2022-11-23T23:28:06.890Z,0.50
2022-11-23T23:30:36.828Z,0.50
2022-11-23T23:33:06.880Z,0.50
2022-11-23T23:35:37.024Z,0.50
2022-11-23T23:38:06.854Z,6.20
2022-11-23T23:40:37.203Z,6.20
2022-11-23T23:43:06.920Z,6.20
2022-11-23T23:45:36.892Z,6.20
2022-11-23T23:48:06.889Z,0.10
2022-11-23T23:50:36.846Z,0.10
2022-11-23T23:53:07.165Z,0.10
2022-11-23T23:55:36.887Z,0.10
2022-11-23T23:58:06.846Z,0.30
